Time;durP1;ratioP1;P1;durP2;ratioP2;P2;SDS_P1;SDS_P2;PMS_P1;PMS_P2;Temp;Humidity;BMP_temperature;BMP_pressure;BME280_temperature;BME280_humidity;BME280_pressure;Samples;Min_cycle;Max_cycle;Signal;HPM_P1;HPM_P2
2022/10/17 00:01:16;;;;;;;2.30;1.43;;;13.40;99.90;;;;;;5113274;28;20455;-71
2022/10/17 00:03:43;;;;;;;2.50;2.13;;;13.40;99.90;;;;;;5113474;28;20538;-70
2022/10/17 00:06:11;;;;;;;7.30;2.43;;;13.40;99.90;;;;;;5113216;28;20459;-71
2022/10/17 00:08:39;;;;;;;3.00;1.80;;;13.40;99.90;;;;;;5101990;28;20448;-71
2022/10/17 00:11:09;;;;;;;3.93;1.53;;;13.40;99.90;;;;;;5113381;28;20508;-72
2022/10/17 00:13:36;;;;;;;2.23;1.77;;;13.30;99.90;;;;;;5113313;28;20751;-71
2022/10/17 00:16:03;;;;;;;3.20;1.73;;;13.40;99.90;;;;;;5112962;28;20807;-71
2022/10/17 00:18:30;;;;;;;2.50;1.70;;;13.30;99.90;;;;;;5112181;28;20440;-70
2022/10/17 00:20:57;;;;;;;1.93;1.27;;;13.40;99.90;;;;;;5112954;28;20448;-71
2022/10/17 00:23:26;;;;;;;4.50;1.90;;;13.30;99.90;;;;;;5113548;28;20448;-70
2022/10/17 00:25:59;;;;;;;5.43;2.27;;;13.40;99.90;;;;;;5113595;28;20444;-71
2022/10/17 00:28:27;;;;;;;1.77;1.67;;;13.40;99.90;;;;;;5113719;28;20451;-70
2022/10/17 00:30:58;;;;;;;2.20;1.40;;;13.30;99.90;;;;;;5113814;28;20454;-70
2022/10/17 00:33:25;;;;;;;2.90;2.33;;;13.20;99.90;;;;;;5113031;28;20447;-70
2022/10/17 00:35:51;;;;;;;4.23;1.80;;;13.10;99.90;;;;;;5113546;28;20439;-71
2022/10/17 00:38:18;;;;;;;9.67;2.10;;;13.10;99.90;;;;;;5112641;28;20444;-71
2022/10/17 00:40:45;;;;;;;5.57;1.50;;;13.30;99.90;;;;;;5113177;28;20459;-70
2022/10/17 00:43:16;;;;;;;2.70;1.67;;;13.40;99.90;;;;;;5112452;28;20447;-71
2022/10/17 00:45:44;;;;;;;1.40;1.30;;;13.40;99.90;;;;;;5113040;28;20504;-71
2022/10/17 00:48:12;;;;;;;1.40;1.23;;;13.20;99.90;;;;;;5112223;28;20479;-71
2022/10/17 00:50:42;;;;;;;6.20;1.87;;;13.20;99.90;;;;;;5099762;28;20450;-71
2022/10/17 00:53:10;;;;;;;1.97;1.77;;;13.10;99.90;;;;;;5111593;28;20457;-71
2022/10/17 00:55:41;;;;;;;1.97;1.63;;;13.10;99.90;;;;;;5112814;28;20777;-71
2022/10/17 00:58:08;;;;;;;2.07;1.23;;;13.10;99.90;;;;;;5112406;28;20467;-71
2022/10/17 01:00:36;;;;;;;4.87;1.70;;;13.00;99.90;;;;;;5112906;28;20809;-71
2022/10/17 01:03:04;;;;;;;2.37;1.70;;;12.90;99.90;;;;;;5111899;28;20536;-71
2022/10/17 01:05:31;;;;;;;1.97;1.50;;;13.00;99.90;;;;;;5112922;28;20808;-71
2022/10/17 01:07:58;;;;;;;3.00;2.00;;;13.10;99.90;;;;;;5112380;28;20455;-70
2022/10/17 01:10:31;;;;;;;2.10;1.43;;;12.90;99.90;;;;;;5112926;28;20984;-70
2022/10/17 01:13:09;;;;;;;1.97;1.77;;;12.90;99.90;;;;;;5110519;28;20970;-71
2022/10/17 01:15:50;;;;;;;2.27;1.70;;;12.90;99.90;;;;;;5112649;28;20891;-71
2022/10/17 01:18:32;;;;;;;4.27;1.70;;;12.90;99.90;;;;;;5112149;28;20440;-70
2022/10/17 01:21:24;;;;;;;3.37;1.93;;;12.90;99.90;;;;;;5112439;28;20923;-72
2022/10/17 01:24:44;;;;;;;2.60;1.33;;;12.90;99.90;;;;;;5117492;28;20444;-72
2022/10/17 01:27:29;;;;;;;1.73;1.30;;;12.90;99.90;;;;;;5110240;28;20446;-71
2022/10/17 01:30:29;;;;;;;4.57;2.03;;;12.90;99.90;;;;;;5117563;28;20454;-69
2022/10/17 01:33:03;;;;;;;3.60;2.00;;;12.80;99.90;;;;;;5118359;28;20526;-68
2022/10/17 01:35:37;;;;;;;2.13;1.83;;;13.00;99.90;;;;;;5119329;28;20436;-70
2022/10/17 01:38:10;;;;;;;1.63;1.33;;;13.00;99.90;;;;;;5111860;28;20474;-71
2022/10/17 01:40:42;;;;;;;2.00;1.53;;;13.00;99.90;;;;;;5109848;28;20458;-71
2022/10/17 01:43:17;;;;;;;2.13;1.60;;;12.80;99.90;;;;;;5110621;28;20594;-71
2022/10/17 01:45:48;;;;;;;2.50;1.53;;;12.90;99.90;;;;;;5111591;28;20439;-71
2022/10/17 01:48:22;;;;;;;1.30;1.10;;;12.90;99.90;;;;;;5110741;28;20476;-71
2022/10/17 01:50:53;;;;;;;2.90;1.90;;;12.90;99.90;;;;;;5112168;28;20450;-70
2022/10/17 01:53:25;;;;;;;2.20;1.60;;;12.80;99.90;;;;;;5111175;28;20464;-71
2022/10/17 01:55:54;;;;;;;3.20;2.43;;;12.80;99.90;;;;;;5111949;28;20451;-71
2022/10/17 01:58:28;;;;;;;7.70;1.80;;;12.70;99.90;;;;;;5111998;28;20479;-71
2022/10/17 02:00:58;;;;;;;1.37;1.27;;;12.70;99.90;;;;;;5111176;28;20450;-69
2022/10/17 02:03:28;;;;;;;3.00;1.70;;;12.70;99.90;;;;;;5111040;28;20444;-71
2022/10/17 02:05:56;;;;;;;3.80;2.20;;;12.70;99.90;;;;;;5103600;28;20950;-70
2022/10/17 02:08:27;;;;;;;3.37;2.07;;;12.80;99.90;;;;;;5111532;28;20451;-71
2022/10/17 02:11:00;;;;;;;3.13;1.70;;;12.80;99.90;;;;;;5105029;28;20535;-69
2022/10/17 02:13:39;;;;;;;2.90;1.83;;;12.90;99.90;;;;;;5110871;28;20953;-70
2022/10/17 02:16:18;;;;;;;2.43;2.20;;;12.90;99.90;;;;;;5110331;28;20458;-70
2022/10/17 02:19:07;;;;;;;4.43;1.60;;;12.90;99.90;;;;;;5111635;28;20456;-71
2022/10/17 02:21:44;;;;;;;2.97;1.63;;;12.90;99.90;;;;;;5110894;28;20433;-71
2022/10/17 02:24:18;;;;;;;8.50;2.17;;;12.70;99.90;;;;;;5110416;28;20450;-71
2022/10/17 02:26:52;;;;;;;5.03;2.40;;;12.70;99.90;;;;;;5111606;28;20459;-71
2022/10/17 02:29:22;;;;;;;2.70;1.57;;;12.60;99.90;;;;;;5111193;28;20478;-71
2022/10/17 02:31:54;;;;;;;1.47;1.30;;;12.60;99.90;;;;;;5110406;28;20934;-71
2022/10/17 02:34:25;;;;;;;2.23;1.47;;;12.60;99.90;;;;;;5111331;28;20446;-71
2022/10/17 02:36:55;;;;;;;3.47;1.40;;;12.60;99.90;;;;;;5111178;28;20470;-70
2022/10/17 02:39:24;;;;;;;3.40;2.23;;;12.60;99.90;;;;;;5101698;28;20575;-72
2022/10/17 02:41:53;;;;;;;3.83;2.23;;;12.50;99.90;;;;;;5112512;28;20818;-70
2022/10/17 02:44:21;;;;;;;2.80;1.53;;;12.50;99.90;;;;;;5113041;28;20444;-71
2022/10/17 02:46:54;;;;;;;2.27;2.00;;;12.50;99.90;;;;;;5115562;28;20566;-71
2022/10/17 02:49:25;;;;;;;2.43;1.57;;;12.50;99.90;;;;;;5115561;28;20817;-71
2022/10/17 02:51:57;;;;;;;2.83;2.10;;;12.50;99.90;;;;;;5115048;28;20509;-71
2022/10/17 02:54:31;;;;;;;4.33;2.03;;;12.50;99.90;;;;;;5115401;28;20439;-71
2022/10/17 02:57:05;;;;;;;4.43;1.40;;;12.50;99.90;;;;;;5114460;28;20922;-71
2022/10/17 02:59:35;;;;;;;2.43;1.93;;;12.50;99.90;;;;;;5115521;28;20454;-71
2022/10/17 03:02:03;;;;;;;1.67;1.50;;;12.60;99.90;;;;;;5114023;28;20440;-71
2022/10/17 03:04:31;;;;;;;2.87;2.53;;;12.50;99.90;;;;;;5115014;28;20439;-74
2022/10/17 03:06:58;;;;;;;2.00;1.77;;;12.50;99.90;;;;;;5114538;28;20440;-72
2022/10/17 03:09:25;;;;;;;3.90;2.03;;;12.50;99.90;;;;;;5114713;28;20961;-70
2022/10/17 03:11:52;;;;;;;2.87;2.07;;;12.60;99.90;;;;;;5114689;28;20455;-72
2022/10/17 03:14:19;;;;;;;2.10;1.70;;;12.50;99.90;;;;;;5114777;28;20798;-72
2022/10/17 03:16:46;;;;;;;1.90;1.40;;;12.60;99.90;;;;;;5114631;28;20467;-72
2022/10/17 03:19:12;;;;;;;2.83;2.00;;;12.50;99.90;;;;;;5114370;28;20458;-71
2022/10/17 03:21:41;;;;;;;2.23;1.80;;;12.50;99.90;;;;;;5114373;28;20953;-71
2022/10/17 03:24:07;;;;;;;2.80;1.67;;;12.40;99.90;;;;;;5114247;28;20803;-71
2022/10/17 03:26:34;;;;;;;2.90;1.40;;;12.50;99.90;;;;;;5114944;28;20810;-71
2022/10/17 03:29:01;;;;;;;2.30;2.10;;;12.40;99.90;;;;;;5114148;28;20443;-71
2022/10/17 03:31:28;;;;;;;3.87;2.40;;;12.40;99.90;;;;;;5114028;28;20539;-71
2022/10/17 03:33:55;;;;;;;2.47;1.57;;;12.40;99.90;;;;;;5113917;28;20462;-68
2022/10/17 03:36:22;;;;;;;1.73;1.30;;;12.40;99.90;;;;;;5114910;28;20444;-71
2022/10/17 03:38:54;;;;;;;2.10;1.60;;;12.60;99.90;;;;;;5114847;28;20475;-71
2022/10/17 03:41:21;;;;;;;2.43;1.83;;;12.60;99.90;;;;;;5114532;28;20527;-71
2022/10/17 03:43:48;;;;;;;1.80;1.30;;;12.50;99.90;;;;;;5114253;28;20467;-71
2022/10/17 03:46:14;;;;;;;1.67;1.30;;;12.40;99.90;;;;;;5113569;28;20455;-71
2022/10/17 03:48:41;;;;;;;2.63;1.50;;;12.40;99.90;;;;;;5114040;28;20471;-71
2022/10/17 03:51:09;;;;;;;5.00;1.47;;;12.30;99.90;;;;;;5113413;28;20805;-71
2022/10/17 03:53:36;;;;;;;2.60;1.67;;;12.30;99.90;;;;;;5114482;28;20450;-71
2022/10/17 03:56:12;;;;;;;4.00;1.77;;;12.30;99.90;;;;;;5113828;28;20459;-71
2022/10/17 03:58:40;;;;;;;2.83;1.83;;;12.50;99.90;;;;;;5114247;28;20464;-71
2022/10/17 04:01:08;;;;;;;6.73;1.67;;;12.50;99.90;;;;;;5112850;28;20923;-70
2022/10/17 04:03:35;;;;;;;2.13;1.47;;;12.40;99.90;;;;;;5100624;28;20572;-73
2022/10/17 04:06:03;;;;;;;2.10;1.53;;;12.40;99.90;;;;;;5113552;28;20451;-70
2022/10/17 04:08:31;;;;;;;4.03;2.30;;;12.30;99.90;;;;;;5114140;28;20448;-71
2022/10/17 04:10:59;;;;;;;1.70;1.33;;;12.30;99.90;;;;;;5113420;28;20452;-71
2022/10/17 04:13:31;;;;;;;2.23;1.83;;;12.40;99.90;;;;;;5113911;28;20449;-69
2022/10/17 04:16:04;;;;;;;2.00;1.37;;;12.40;99.90;;;;;;5113126;28;20957;-70
2022/10/17 04:18:32;;;;;;;2.70;1.43;;;12.40;99.90;;;;;;5113979;28;20467;-71
2022/10/17 04:21:01;;;;;;;3.30;1.73;;;12.40;99.90;;;;;;5098265;28;20451;-70
2022/10/17 04:23:28;;;;;;;1.63;1.53;;;12.50;99.90;;;;;;5111153;28;20447;-71
2022/10/17 04:25:56;;;;;;;1.97;1.50;;;12.40;99.90;;;;;;5112719;28;20455;-70
2022/10/17 04:28:23;;;;;;;1.80;1.53;;;12.50;99.90;;;;;;5105320;28;20452;-71
2022/10/17 04:30:57;;;;;;;5.33;1.67;;;12.40;99.90;;;;;;5112517;28;20451;-71
2022/10/17 04:33:24;;;;;;;2.57;1.70;;;12.40;99.90;;;;;;5113681;28;20444;-71
2022/10/17 04:35:56;;;;;;;4.50;1.73;;;12.40;99.90;;;;;;5113684;28;20463;-71
2022/10/17 04:38:23;;;;;;;4.00;1.53;;;12.40;99.90;;;;;;5113130;28;20482;-70
2022/10/17 04:40:50;;;;;;;2.00;1.60;;;12.40;99.90;;;;;;5113360;28;20446;-71
2022/10/17 04:43:17;;;;;;;1.60;1.50;;;12.40;99.90;;;;;;5112279;28;20791;-71
2022/10/17 04:45:44;;;;;;;5.07;1.87;;;12.30;99.90;;;;;;5112829;28;20467;-71
2022/10/17 04:48:12;;;;;;;6.20;1.60;;;12.30;99.90;;;;;;5112419;28;20475;-73
2022/10/17 04:50:39;;;;;;;2.47;2.27;;;12.30;99.90;;;;;;5112735;28;20440;-73
2022/10/17 04:53:06;;;;;;;2.20;1.77;;;12.20;99.90;;;;;;5112013;28;20452;-72
2022/10/17 04:55:37;;;;;;;9.03;1.30;;;12.10;99.90;;;;;;5111990;28;20466;-69
2022/10/17 04:58:04;;;;;;;5.30;1.83;;;12.20;99.90;;;;;;5097667;28;20464;-71
2022/10/17 05:00:31;;;;;;;2.63;1.63;;;12.20;99.90;;;;;;5100710;28;20451;-71
2022/10/17 05:02:58;;;;;;;3.67;1.60;;;12.20;99.90;;;;;;5122501;27;20457;-74
2022/10/17 05:05:26;;;;;;;3.90;2.13;;;12.20;99.90;;;;;;5113067;28;20454;-73
2022/10/17 05:07:53;;;;;;;4.07;1.53;;;12.20;99.90;;;;;;5112995;28;20462;-73
2022/10/17 05:10:20;;;;;;;2.93;1.77;;;12.20;99.90;;;;;;5115543;28;20454;-72
2022/10/17 05:12:47;;;;;;;2.93;1.57;;;12.20;99.90;;;;;;5115498;28;20942;-73
2022/10/17 05:15:14;;;;;;;1.90;1.43;;;12.20;99.90;;;;;;5116616;28;20444;-73
2022/10/17 05:17:41;;;;;;;2.93;1.80;;;12.20;99.90;;;;;;5118201;28;20512;-73
2022/10/17 05:20:09;;;;;;;2.87;2.07;;;12.20;99.90;;;;;;5117332;28;20444;-73
2022/10/17 05:22:38;;;;;;;2.53;1.97;;;12.30;99.90;;;;;;5113861;28;20448;-73
2022/10/17 05:25:06;;;;;;;5.53;1.80;;;12.30;99.90;;;;;;5112427;28;20463;-73
2022/10/17 05:27:33;;;;;;;2.30;1.70;;;12.30;99.90;;;;;;5112653;28;20448;-72
2022/10/17 05:30:00;;;;;;;2.07;1.50;;;12.30;99.90;;;;;;5111699;28;20443;-72
2022/10/17 05:32:26;;;;;;;4.80;2.93;;;12.40;99.90;;;;;;5112041;28;20544;-72
2022/10/17 05:34:53;;;;;;;4.93;2.40;;;12.30;99.90;;;;;;5112624;28;20443;-72
2022/10/17 05:37:20;;;;;;;2.50;1.60;;;12.40;99.90;;;;;;5112115;28;20938;-72
2022/10/17 05:39:48;;;;;;;3.67;2.27;;;12.40;99.90;;;;;;5111976;28;20447;-72
2022/10/17 05:42:15;;;;;;;2.43;1.70;;;12.50;99.90;;;;;;5111334;28;20781;-71
2022/10/17 05:44:42;;;;;;;9.17;2.17;;;12.40;99.90;;;;;;5112066;28;20923;-71
2022/10/17 05:47:09;;;;;;;3.03;1.60;;;12.40;99.90;;;;;;5111119;28;20462;-72
2022/10/17 05:49:35;;;;;;;2.43;1.70;;;12.40;99.90;;;;;;5112433;28;20516;-71
2022/10/17 05:52:02;;;;;;;3.93;1.83;;;12.50;99.90;;;;;;5111142;28;20816;-71
2022/10/17 05:54:29;;;;;;;6.13;1.57;;;12.40;99.90;;;;;;5112192;28;20448;-72
2022/10/17 05:56:57;;;;;;;3.10;1.70;;;12.40;99.90;;;;;;5111108;28;20958;-70
2022/10/17 05:59:25;;;;;;;3.07;2.00;;;12.50;99.90;;;;;;5111884;28;20475;-71
2022/10/17 06:01:52;;;;;;;1.90;1.43;;;12.50;99.90;;;;;;5111612;28;20811;-72
2022/10/17 06:04:19;;;;;;;3.47;2.20;;;12.50;99.90;;;;;;5111334;28;20448;-72
2022/10/17 06:06:46;;;;;;;3.47;1.97;;;12.40;99.90;;;;;;5111707;28;21001;-72
2022/10/17 06:09:13;;;;;;;3.87;1.90;;;12.50;99.90;;;;;;5111350;28;20485;-72
2022/10/17 06:11:40;;;;;;;2.43;1.73;;;12.60;99.90;;;;;;5111430;28;20543;-72
2022/10/17 06:14:08;;;;;;;3.00;1.60;;;12.60;99.90;;;;;;5110992;28;20454;-72
2022/10/17 06:16:35;;;;;;;2.53;2.00;;;12.70;99.90;;;;;;5097278;28;20501;-71
2022/10/17 06:19:01;;;;;;;2.63;2.00;;;12.80;99.90;;;;;;5111151;28;20476;-71
2022/10/17 06:21:33;;;;;;;2.63;1.63;;;12.80;99.90;;;;;;5111037;28;20459;-71
2022/10/17 06:23:59;;;;;;;2.50;1.47;;;12.80;99.90;;;;;;5111084;28;20450;-71
2022/10/17 06:26:26;;;;;;;6.23;2.30;;;12.80;99.90;;;;;;5111739;28;20462;-71
2022/10/17 06:28:54;;;;;;;2.90;2.00;;;13.00;99.90;;;;;;5111807;28;20452;-71
2022/10/17 06:31:22;;;;;;;3.23;2.43;;;12.90;99.90;;;;;;5111038;28;20444;-72
2022/10/17 06:33:49;;;;;;;2.13;1.77;;;12.70;99.90;;;;;;5111533;28;20805;-72
2022/10/17 06:36:16;;;;;;;2.13;1.53;;;12.70;99.90;;;;;;5110901;28;20498;-72
2022/10/17 06:38:43;;;;;;;5.00;1.90;;;12.90;99.90;;;;;;5111470;28;20480;-72
2022/10/17 06:41:12;;;;;;;4.60;2.20;;;13.00;99.90;;;;;;5110497;28;20450;-71
2022/10/17 06:43:40;;;;;;;5.03;1.70;;;13.10;99.90;;;;;;5111226;28;21009;-71
2022/10/17 06:46:07;;;;;;;4.27;2.17;;;13.20;99.90;;;;;;5110684;28;20452;-72
2022/10/17 06:48:35;;;;;;;4.13;1.60;;;13.20;99.90;;;;;;5111266;28;20482;-72
2022/10/17 06:51:03;;;;;;;3.97;2.37;;;13.20;99.90;;;;;;5110236;28;20443;-71
2022/10/17 06:53:31;;;;;;;4.07;1.80;;;13.10;99.90;;;;;;5111566;28;20469;-71
2022/10/17 06:56:01;;;;;;;3.30;2.90;;;13.10;99.90;;;;;;5110858;28;20839;-71
2022/10/17 06:58:29;;;;;;;3.70;2.30;;;13.20;99.90;;;;;;5111144;28;21038;-71
2022/10/17 07:00:59;;;;;;;4.00;2.70;;;13.30;99.90;;;;;;5110481;28;20443;-71
2022/10/17 07:03:26;;;;;;;2.37;1.80;;;13.40;99.90;;;;;;5110973;28;20436;-71
2022/10/17 07:05:55;;;;;;;2.90;2.17;;;13.50;99.90;;;;;;5111604;28;20806;-72
2022/10/17 07:08:22;;;;;;;3.80;2.33;;;13.60;99.90;;;;;;5111287;28;20448;-72
2022/10/17 07:10:50;;;;;;;2.80;2.53;;;13.80;99.90;;;;;;5110898;28;20447;-73
2022/10/17 07:13:17;;;;;;;2.00;1.50;;;14.00;99.90;;;;;;5097291;28;20448;-73
2022/10/17 07:15:44;;;;;;;5.33;2.03;;;14.00;99.90;;;;;;5111090;28;20452;-71
2022/10/17 07:18:11;;;;;;;2.40;1.83;;;14.20;99.90;;;;;;5110398;28;20479;-72
2022/10/17 07:20:39;;;;;;;4.10;2.30;;;14.40;99.90;;;;;;5110669;28;20452;-72
2022/10/17 07:23:07;;;;;;;3.70;1.87;;;14.40;99.90;;;;;;5110653;28;20475;-72
2022/10/17 07:25:34;;;;;;;3.10;2.03;;;14.50;99.90;;;;;;5111008;28;20452;-71
2022/10/17 07:28:01;;;;;;;3.53;2.70;;;14.60;99.90;;;;;;5112811;28;20918;-72
2022/10/17 07:30:28;;;;;;;4.57;2.33;;;14.60;99.90;;;;;;5114354;28;20514;-71
2022/10/17 07:32:55;;;;;;;2.80;2.07;;;14.70;99.90;;;;;;5114104;28;20447;-68
2022/10/17 07:35:22;;;;;;;3.73;1.90;;;14.80;99.90;;;;;;5114531;28;20951;-72
2022/10/17 07:37:48;;;;;;;16.63;2.00;;;14.90;99.90;;;;;;5114684;28;20450;-72
2022/10/17 07:40:17;;;;;;;4.80;2.30;;;15.00;99.90;;;;;;5113375;28;20794;-71
2022/10/17 07:42:44;;;;;;;3.67;2.23;;;15.10;99.90;;;;;;5114258;28;20447;-71
2022/10/17 07:45:11;;;;;;;3.63;2.43;;;15.10;99.90;;;;;;5114021;28;20452;-71
2022/10/17 07:47:37;;;;;;;2.43;2.23;;;15.20;99.90;;;;;;5114179;28;20566;-71
2022/10/17 07:50:05;;;;;;;5.00;1.97;;;15.30;99.90;;;;;;5113623;28;20447;-71
2022/10/17 07:52:32;;;;;;;6.20;1.93;;;15.40;99.90;;;;;;5114332;28;20535;-71
2022/10/17 07:54:59;;;;;;;2.73;1.60;;;15.60;99.90;;;;;;5113839;28;20451;-71
2022/10/17 07:57:27;;;;;;;4.33;1.70;;;15.70;99.90;;;;;;5114457;28;20459;-71
2022/10/17 07:59:55;;;;;;;3.63;1.87;;;15.90;99.90;;;;;;5113961;28;20482;-68
2022/10/17 08:02:23;;;;;;;2.20;1.50;;;16.10;99.90;;;;;;5113463;28;20483;-72
2022/10/17 08:04:50;;;;;;;3.07;2.07;;;16.10;99.90;;;;;;5114112;28;20447;-72
2022/10/17 08:07:18;;;;;;;2.57;1.87;;;16.20;99.90;;;;;;5113699;28;20455;-71
2022/10/17 08:09:46;;;;;;;2.27;1.53;;;16.40;99.90;;;;;;5114010;28;20509;-71
2022/10/17 08:12:14;;;;;;;4.27;2.10;;;16.40;99.90;;;;;;5113188;28;20451;-72
2022/10/17 08:14:43;;;;;;;3.50;1.27;;;16.50;99.90;;;;;;5113660;28;20944;-72
2022/10/17 08:17:10;;;;;;;1.87;1.53;;;16.70;99.90;;;;;;5113289;28;20930;-72
2022/10/17 08:19:39;;;;;;;5.03;1.83;;;16.70;99.90;;;;;;5113716;28;20479;-71
2022/10/17 08:22:06;;;;;;;2.00;1.27;;;16.90;43.00;;;;;;5112930;28;20450;-71
2022/10/17 08:24:32;;;;;;;2.90;2.23;;;17.10;1.00;;;;;;5113871;28;20451;-72
2022/10/17 08:26:59;;;;;;;2.80;1.30;;;17.20;1.00;;;;;;5112802;28;20811;-71
2022/10/17 08:29:27;;;;;;;3.13;1.73;;;17.30;1.00;;;;;;5113841;28;20452;-71
2022/10/17 08:31:55;;;;;;;2.87;1.30;;;17.40;1.00;;;;;;5113198;28;20439;-73
2022/10/17 08:34:22;;;;;;;1.83;1.17;;;17.50;1.00;;;;;;5113837;28;20500;-71
2022/10/17 08:36:50;;;;;;;1.77;1.43;;;17.80;29.40;;;;;;5113265;28;20455;-72
2022/10/17 08:39:17;;;;;;;2.90;1.60;;;17.80;31.50;;;;;;5112039;28;20855;-71
2022/10/17 08:42:15;;;;;;;4.63;1.80;;;17.80;99.90;;;;;;5113272;28;20448;-72
2022/10/17 08:44:49;;;;;;;1.30;1.17;;;18.00;1.00;;;;;;5113647;28;20805;-72
2022/10/17 08:47:24;;;;;;;2.10;1.20;;;18.10;1.00;;;;;;5112271;28;20466;-72
2022/10/17 08:49:54;;;;;;;2.40;1.57;;;18.20;6.80;;;;;;5113545;28;20446;-72
2022/10/17 08:52:30;;;;;;;2.63;1.67;;;18.50;99.90;;;;;;5114073;28;20444;-71
2022/10/17 08:54:58;;;;;;;2.67;1.40;;;18.70;1.00;;;;;;5115282;28;20477;-71
2022/10/17 08:57:27;;;;;;;1.70;1.50;;;18.70;99.90;;;;;;5117731;28;20526;-71
2022/10/17 08:59:55;;;;;;;2.57;2.03;;;18.90;99.90;;;;;;5117631;28;20501;-72
2022/10/17 09:02:50;;;;;;;2.50;1.53;;;19.10;99.90;;;;;;5118148;28;20509;-71
2022/10/17 09:05:30;;;;;;;1.70;1.47;;;19.00;1.00;;;;;;5112277;28;20566;-71
2022/10/17 09:08:08;;;;;;;2.70;1.63;;;19.10;1.00;;;;;;5112912;28;20444;-71
2022/10/17 09:10:51;;;;;;;2.13;1.40;;;19.30;74.50;;;;;;5103570;28;20447;-71
2022/10/17 09:13:30;;;;;;;1.43;1.33;;;19.50;99.90;;;;;;5112549;28;20809;-71
2022/10/17 09:16:07;;;;;;;1.47;1.10;;;19.90;99.90;;;;;;5111788;28;20946;-71
2022/10/17 09:18:39;;;;;;;1.40;0.97;;;20.20;29.00;;;;;;5112268;28;20447;-72
2022/10/17 09:21:17;;;;;;;1.53;1.20;;;20.10;99.90;;;;;;5111747;28;20444;-71
2022/10/17 09:23:48;;;;;;;1.60;1.30;;;20.20;26.80;;;;;;5112875;28;20444;-71
2022/10/17 09:26:15;;;;;;;1.47;1.20;;;20.30;19.60;;;;;;5111851;28;20978;-71
2022/10/17 09:28:43;;;;;;;2.50;1.10;;;20.50;1.00;;;;;;5112641;28;20454;-71
2022/10/17 09:31:17;;;;;;;2.20;1.43;;;20.60;1.00;;;;;;5111755;28;20463;-71
2022/10/17 09:33:47;;;;;;;1.50;1.30;;;20.50;1.00;;;;;;5112131;28;20440;-71
2022/10/17 09:36:20;;;;;;;3.27;1.40;;;20.40;55.60;;;;;;5111939;28;20452;-73
2022/10/17 09:38:50;;;;;;;1.20;0.93;;;20.60;1.00;;;;;;5112408;28;20508;-71
2022/10/17 09:41:20;;;;;;;2.20;1.27;;;20.50;1.00;;;;;;5111263;28;20452;-71
2022/10/17 09:43:48;;;;;;;3.10;1.33;;;20.60;1.00;;;;;;5112021;28;20448;-71
2022/10/17 09:46:22;;;;;;;1.77;1.13;;;20.80;99.90;;;;;;5112008;28;20965;-71
2022/10/17 09:48:53;;;;;;;2.00;1.30;;;21.00;99.90;;;;;;5112313;28;20475;-71
2022/10/17 09:51:21;;;;;;;2.07;1.47;;;21.10;99.90;;;;;;5111844;28;20444;-72
2022/10/17 09:53:51;;;;;;;1.63;1.30;;;21.30;1.00;;;;;;5112068;28;20454;-71
2022/10/17 09:56:19;;;;;;;2.00;1.40;;;21.30;1.00;;;;;;5111640;28;20467;-71
2022/10/17 09:58:48;;;;;;;1.60;1.23;;;21.30;1.00;;;;;;5111860;28;20839;-71
2022/10/17 10:01:18;;;;;;;1.97;1.50;;;21.20;99.90;;;;;;5110953;28;20474;-71
2022/10/17 10:03:44;;;;;;;1.53;1.07;;;21.40;99.90;;;;;;5112125;28;20452;-71
2022/10/17 10:06:16;;;;;;;1.60;1.40;;;21.50;99.90;;;;;;5111082;28;20454;-71
2022/10/17 10:08:51;;;;;;;2.13;1.40;;;21.40;99.90;;;;;;5111735;28;20945;-72
2022/10/17 10:11:22;;;;;;;1.73;1.20;;;21.60;99.90;;;;;;5110548;28;20447;-72
2022/10/17 10:13:49;;;;;;;1.50;1.20;;;21.80;99.90;;;;;;5111649;28;20440;-71
2022/10/17 10:16:20;;;;;;;1.17;0.97;;;21.80;99.90;;;;;;5111144;28;20555;-71
2022/10/17 10:18:48;;;;;;;1.30;1.07;;;21.90;99.90;;;;;;5111265;28;20948;-71
2022/10/17 10:21:18;;;;;;;4.37;1.30;;;21.80;99.90;;;;;;5110839;28;20470;-72
2022/10/17 10:24:02;;;;;;;1.60;1.07;;;21.90;99.90;;;;;;5112045;28;20448;-72
2022/10/17 10:26:35;;;;;;;1.80;1.07;;;21.90;99.90;;;;;;5111595;28;20938;-71
2022/10/17 10:29:05;;;;;;;1.20;0.97;;;22.20;99.90;;;;;;5111296;28;20443;-71
2022/10/17 10:31:35;;;;;;;1.50;1.23;;;22.20;99.90;;;;;;5110958;28;20443;-71
2022/10/17 10:34:12;;;;;;;1.10;1.00;;;22.10;99.90;;;;;;5110784;28;20794;-71
2022/10/17 10:36:48;;;;;;;1.33;1.10;;;22.10;99.90;;;;;;5111753;28;20443;-71
2022/10/17 10:39:28;;;;;;;2.03;1.10;;;22.20;99.90;;;;;;5110820;28;21055;-71
2022/10/17 10:41:55;;;;;;;1.87;1.20;;;22.40;99.90;;;;;;5110698;28;20450;-69
2022/10/17 10:44:27;;;;;;;1.43;1.13;;;22.40;99.90;;;;;;5111527;28;20450;-72
2022/10/17 10:47:16;;;;;;;1.80;1.20;;;22.60;99.90;;;;;;5111400;28;20447;-71
2022/10/17 10:49:43;;;;;;;1.20;1.10;;;22.70;99.90;;;;;;5111202;28;20941;-72
2022/10/17 10:52:18;;;;;;;1.40;1.20;;;22.70;99.90;;;;;;5110662;28;20451;-72
2022/10/17 10:54:54;;;;;;;1.50;1.33;;;22.70;99.90;;;;;;5111328;28;20450;-72
2022/10/17 10:57:25;;;;;;;1.20;1.00;;;22.90;99.90;;;;;;5111794;28;20812;-72
2022/10/17 11:00:00;;;;;;;3.13;1.63;;;22.90;99.90;;;;;;5111018;28;20987;-71
2022/10/17 11:02:33;;;;;;;1.70;1.10;;;22.90;99.90;;;;;;5112156;28;20930;-71
2022/10/17 11:05:04;;;;;;;1.90;1.20;;;22.90;99.90;;;;;;5114635;28;20446;-71
2022/10/17 11:07:36;;;;;;;1.80;1.13;;;23.10;99.90;;;;;;5115464;28;20800;-71
2022/10/17 11:10:12;;;;;;;2.50;1.30;;;23.20;99.90;;;;;;5114135;28;20527;-72
2022/10/17 11:12:44;;;;;;;1.47;1.30;;;23.10;99.90;;;;;;5115214;28;20447;-72
2022/10/17 11:15:20;;;;;;;1.13;1.03;;;23.20;99.90;;;;;;5114700;28;20911;-72
2022/10/17 11:17:57;;;;;;;1.57;1.10;;;23.10;99.90;;;;;;5115152;28;20496;-72
2022/10/17 11:20:34;;;;;;;1.17;0.97;;;23.30;99.90;;;;;;5114514;28;20479;-72
2022/10/17 11:23:18;;;;;;;1.50;1.10;;;23.60;99.90;;;;;;5114597;28;20779;-72
2022/10/17 11:25:47;;;;;;;1.70;1.40;;;23.90;99.90;;;;;;5114873;28;20435;-71
2022/10/17 11:28:16;;;;;;;4.27;1.30;;;24.00;99.90;;;;;;5114146;28;20448;-72
2022/10/17 11:30:48;;;;;;;1.93;1.00;;;24.20;99.90;;;;;;5113960;28;20455;-72
2022/10/17 11:33:23;;;;;;;1.23;1.07;;;24.20;99.90;;;;;;5114138;28;20747;-72
2022/10/17 11:35:53;;;;;;;1.20;0.97;;;24.40;99.90;;;;;;5114681;28;20436;-71
2022/10/17 11:38:36;;;;;;;2.00;1.30;;;24.40;99.90;;;;;;5114383;28;20447;-71
2022/10/17 11:41:06;;;;;;;2.00;0.90;;;24.60;99.90;;;;;;5100523;28;20467;-71
2022/10/17 11:43:37;;;;;;;4.73;1.40;;;24.70;99.90;;;;;;5114451;28;20781;-71
2022/10/17 11:46:11;;;;;;;1.37;1.13;;;24.90;99.90;;;;;;5114185;28;20456;-71
2022/10/17 11:48:45;;;;;;;1.10;0.90;;;24.90;99.80;;;;;;5114080;28;20472;-71
2022/10/17 11:51:13;;;;;;;1.70;1.20;;;24.90;95.90;;;;;;5113218;28;20458;-73
2022/10/17 11:53:55;;;;;;;2.13;1.20;;;25.00;92.20;;;;;;5114279;28;20531;-71
2022/10/17 11:56:31;;;;;;;1.33;1.10;;;25.20;90.90;;;;;;5114781;28;20443;-71
2022/10/17 11:59:09;;;;;;;1.83;0.83;;;25.10;87.60;;;;;;5113920;28;20450;-71
2022/10/17 12:01:42;;;;;;;1.60;1.13;;;25.00;86.80;;;;;;5113377;28;21078;-71
2022/10/17 12:04:22;;;;;;;1.73;1.20;;;25.30;83.70;;;;;;5113743;28;20432;-71
2022/10/17 12:07:09;;;;;;;1.10;1.00;;;25.20;78.50;;;;;;5114204;28;20479;-71
2022/10/17 12:09:44;;;;;;;1.37;1.13;;;25.40;82.80;;;;;;5113610;28;20992;-71
2022/10/17 12:12:23;;;;;;;1.43;1.17;;;25.30;91.70;;;;;;5113549;28;20497;-71
2022/10/17 12:14:50;;;;;;;1.70;1.10;;;25.40;91.00;;;;;;5112523;28;20803;-71
2022/10/17 12:17:28;;;;;;;2.57;1.23;;;25.70;75.60;;;;;;5113509;28;20468;-71
2022/10/17 12:20:27;;;;;;;1.37;0.90;;;25.70;74.40;;;;;;5100500;28;20475;-71
2022/10/17 12:22:57;;;;;;;1.00;0.80;;;25.70;71.10;;;;;;5114025;28;20451;-69
2022/10/17 12:25:28;;;;;;;1.10;1.00;;;25.50;68.10;;;;;;5113763;28;20954;-72
2022/10/17 12:28:14;;;;;;;1.33;1.10;;;25.60;61.40;;;;;;5100132;28;20521;-69
2022/10/17 12:30:53;;;;;;;4.13;1.00;;;25.30;61.70;;;;;;5113421;28;20471;-71
2022/10/17 12:33:22;;;;;;;0.87;0.70;;;25.30;59.80;;;;;;5113675;28;20547;-71
2022/10/17 12:35:50;;;;;;;4.90;1.27;;;25.70;59.20;;;;;;5113536;28;20444;-72
2022/10/17 12:38:28;;;;;;;3.03;1.63;;;25.70;58.00;;;;;;5114798;28;20508;-72
2022/10/17 12:40:58;;;;;;;3.60;1.20;;;25.80;54.80;;;;;;5116987;28;20478;-68
2022/10/17 12:43:55;;;;;;;2.40;0.97;;;25.50;55.20;;;;;;5117757;28;20506;-71
2022/10/17 12:46:47;;;;;;;1.40;1.10;;;25.60;55.40;;;;;;5119523;28;20452;-72
2022/10/17 12:49:36;;;;;;;2.50;0.90;;;25.90;55.10;;;;;;5107866;28;20467;-71
2022/10/17 12:53:00;;;;;;;3.13;1.27;;;25.80;55.60;;;;;;5117039;28;20439;-71
2022/10/17 12:55:28;;;;;;;1.50;1.00;;;25.70;55.70;;;;;;5030583;28;20453;-71
2022/10/17 12:58:01;;;;;;;1.83;1.30;;;25.70;66.10;;;;;;5029938;28;20853;-70
2022/10/17 13:00:33;;;;;;;2.97;1.27;;;25.90;52.60;;;;;;5070020;28;20905;-71
2022/10/17 13:03:10;;;;;;;1.10;1.00;;;25.70;53.30;;;;;;5112579;28;20835;-71
2022/10/17 13:05:40;;;;;;;2.90;1.00;;;25.90;46.10;;;;;;5113263;28;20443;-71
2022/10/17 13:08:13;;;;;;;1.20;0.80;;;26.00;44.40;;;;;;5112451;28;20440;-71